createdAt,value
2022-10-09T00:01:05.667Z,95486.84
2022-10-09T00:03:32.976Z,95492.53
2022-10-09T00:05:59.548Z,95495.63
2022-10-09T00:08:26.538Z,95486.78
2022-10-09T00:10:53.163Z,95493.25
2022-10-09T00:13:20.365Z,95489.91
2022-10-09T00:15:47.838Z,95491.09
2022-10-09T00:18:16.975Z,95488.22
2022-10-09T00:20:45.376Z,95485.31
2022-10-09T00:23:17.494Z,95478.63
2022-10-09T00:25:59.958Z,95474.56
2022-10-09T00:28:28.957Z,95482.19
2022-10-09T00:30:55.704Z,95479.06
2022-10-09T00:33:22.547Z,95475.00
2022-10-09T00:35:49.710Z,95468.03
2022-10-09T00:38:16.975Z,95467.31
2022-10-09T00:40:44.053Z,95475.69
2022-10-09T00:43:19.847Z,95467.06
2022-10-09T00:45:54.161Z,95455.06
2022-10-09T00:48:21.639Z,95461.72
2022-10-09T00:50:57.950Z,95466.53
2022-10-09T00:53:27.851Z,95454.06
2022-10-09T00:55:54.712Z,95456.69
2022-10-09T00:58:22.987Z,95455.25
2022-10-09T01:00:49.751Z,95456.47
2022-10-09T01:03:16.387Z,95452.13
2022-10-09T01:06:16.974Z,95445.44
2022-10-09T01:09:02.813Z,95448.75
2022-10-09T01:11:42.395Z,95441.78
2022-10-09T01:14:50.811Z,95441.56
2022-10-09T01:17:56.401Z,95437.22
2022-10-09T01:20:46.671Z,95431.66
2022-10-09T01:23:42.137Z,95425.69
2022-10-09T01:26:20.435Z,95429.28
2022-10-09T01:28:52.592Z,95422.09
2022-10-09T01:31:20.950Z,95421.13
2022-10-09T01:33:48.455Z,95417.78
2022-10-09T01:36:16.540Z,95416.31
2022-10-09T01:38:44.984Z,95413.91
2022-10-09T01:41:11.567Z,95415.56
2022-10-09T01:43:38.200Z,95420.31
2022-10-09T01:46:29.662Z,95405.00
2022-10-09T01:49:18.266Z,95400.66
2022-10-09T01:51:59.826Z,95398.53
2022-10-09T01:54:55.922Z,95395.06
2022-10-09T01:57:29.423Z,95395.59
2022-10-09T01:59:59.586Z,95395.59
2022-10-09T02:02:27.314Z,95394.88
2022-10-09T02:04:54.087Z,95388.88
2022-10-09T02:07:23.056Z,95380.97
2022-10-09T02:09:50.017Z,95378.59
2022-10-09T02:12:19.188Z,95374.13
2022-10-09T02:14:45.907Z,95377.09
2022-10-09T02:17:24.617Z,95368.44
2022-10-09T02:19:56.518Z,95373.50
2022-10-09T02:22:29.826Z,95370.13
2022-10-09T02:25:01.954Z,95365.63
2022-10-09T02:27:29.379Z,95372.50
2022-10-09T02:29:56.727Z,95365.09
2022-10-09T02:32:23.897Z,95366.03
2022-10-09T02:34:53.215Z,95358.63
2022-10-09T02:37:19.743Z,95364.31
2022-10-09T02:39:46.293Z,95362.16
2022-10-09T02:42:12.875Z,95363.09
2022-10-09T02:44:39.504Z,95361.44
2022-10-09T02:47:06.069Z,95354.50
2022-10-09T02:49:32.642Z,95363.09
2022-10-09T02:51:59.247Z,95358.56
2022-10-09T02:54:25.793Z,95347.53
2022-10-09T02:56:52.418Z,95358.50
2022-10-09T02:59:20.159Z,95357.78
2022-10-09T03:01:46.785Z,95345.59
2022-10-09T03:04:13.500Z,95344.88
2022-10-09T03:06:40.125Z,95343.41
2022-10-09T03:09:06.648Z,95339.63
2022-10-09T03:11:33.545Z,95333.59
2022-10-09T03:14:00.080Z,95336.94
2022-10-09T03:16:29.514Z,95330.50
2022-10-09T03:18:56.246Z,95336.22
2022-10-09T03:21:27.352Z,95332.88
2022-10-09T03:23:54.834Z,95335.97
2022-10-09T03:26:24.350Z,95334.53
2022-10-09T03:28:52.873Z,95330.94
2022-10-09T03:31:50.060Z,95336.19
2022-10-09T03:34:08.442Z,95329.22
2022-10-09T03:36:35.044Z,95335.66
2022-10-09T03:39:01.550Z,95337.56
2022-10-09T03:41:28.132Z,95333.50
2022-10-09T03:43:54.626Z,95338.75
2022-10-09T03:46:21.187Z,95347.09
2022-10-09T03:48:47.736Z,95342.78
2022-10-09T03:51:14.238Z,95342.06
2022-10-09T03:53:40.771Z,95341.31
2022-10-09T03:56:07.571Z,95337.25
2022-10-09T03:58:34.084Z,95339.66
2022-10-09T04:01:00.785Z,95339.66
2022-10-09T04:03:27.609Z,95340.84
2022-10-09T04:05:54.134Z,95339.09
2022-10-09T04:08:20.709Z,95338.03
2022-10-09T04:10:47.246Z,95336.91
2022-10-09T04:13:13.951Z,95334.53
2022-10-09T04:15:40.469Z,95328.09
2022-10-09T04:18:07.022Z,95334.53
2022-10-09T04:20:33.633Z,95331.22
2022-10-09T04:23:00.542Z,95332.38
2022-10-09T04:25:27.776Z,95323.97
2022-10-09T04:27:54.335Z,95322.09
2022-10-09T04:30:20.947Z,95319.94
2022-10-09T04:32:48.648Z,95323.47
2022-10-09T04:35:16.778Z,95321.56
2022-10-09T04:37:43.694Z,95309.38
2022-10-09T04:40:10.355Z,95307.66
2022-10-09T04:42:37.016Z,95306.22
2022-10-09T04:45:03.966Z,95304.28
2022-10-09T04:47:31.052Z,95308.25
2022-10-09T04:49:57.557Z,95308.75
2022-10-09T04:52:24.086Z,95307.81
2022-10-09T04:54:50.602Z,95299.88
2022-10-09T04:57:17.183Z,95298.91
2022-10-09T04:59:43.732Z,95296.28
2022-10-09T05:02:10.340Z,95293.41
2022-10-09T05:04:36.935Z,95297.47
2022-10-09T05:07:03.577Z,95291.72
2022-10-09T05:09:30.138Z,95283.75
2022-10-09T05:11:56.760Z,95292.63
2022-10-09T05:14:23.359Z,95288.56
2022-10-09T05:17:12.493Z,95289.75
2022-10-09T05:19:39.472Z,95287.75
2022-10-09T05:22:06.259Z,95285.09
2022-10-09T05:24:32.775Z,95289.44
2022-10-09T05:26:59.411Z,95286.34
2022-10-09T05:29:26.063Z,95280.63
2022-10-09T05:31:52.694Z,95275.84
2022-10-09T05:34:19.389Z,95273.69
2022-10-09T05:36:46.015Z,95271.31
2022-10-09T05:39:12.561Z,95283.25
2022-10-09T05:41:39.049Z,95275.84
2022-10-09T05:44:05.620Z,95275.38
2022-10-09T05:46:32.331Z,95277.94
2022-10-09T05:49:05.607Z,95276.31
2022-10-09T05:51:38.029Z,95279.66
2022-10-09T05:54:06.019Z,95279.66
2022-10-09T05:56:35.166Z,95273.16
2022-10-09T05:59:07.434Z,95274.53
2022-10-09T06:01:38.073Z,95279.59
2022-10-09T06:04:06.356Z,95278.63
2022-10-09T06:06:36.506Z,95284.84
2022-10-09T06:09:04.074Z,95288.84
2022-10-09T06:11:35.357Z,95291.25
2022-10-09T06:14:03.717Z,95293.66
2022-10-09T06:16:35.313Z,95304.88
2022-10-09T06:19:02.694Z,95296.22
2022-10-09T06:21:29.787Z,95295.25
2022-10-09T06:23:58.423Z,95295.22
2022-10-09T06:26:26.161Z,95301.69
2022-10-09T06:28:52.990Z,95300.66
2022-10-09T06:31:21.888Z,95297.16
2022-10-09T06:33:49.839Z,95299.75
2022-10-09T06:36:19.094Z,95295.50
2022-10-09T06:38:45.999Z,95301.25
2022-10-09T06:41:15.300Z,95305.00
2022-10-09T06:43:42.652Z,95303.59
2022-10-09T06:46:12.743Z,95307.22
2022-10-09T06:48:40.768Z,95313.91
2022-10-09T06:51:12.551Z,95311.53
2022-10-09T06:53:41.588Z,95307.66
2022-10-09T06:56:08.883Z,95304.16
2022-10-09T06:58:35.519Z,95308.94
2022-10-09T07:01:16.649Z,95306.31
2022-10-09T07:03:45.590Z,95304.16
2022-10-09T07:06:17.427Z,95305.50
2022-10-09T07:08:46.340Z,95312.03
2022-10-09T07:11:14.151Z,95308.66
2022-10-09T07:13:42.106Z,95315.25
2022-10-09T07:16:10.503Z,95316.78
2022-10-09T07:18:37.338Z,95319.41
2022-10-09T07:21:05.539Z,95319.66
2022-10-09T07:23:33.326Z,95314.88
2022-10-09T07:26:01.339Z,95308.28
2022-10-09T07:28:29.836Z,95311.13
2022-10-09T07:30:56.707Z,95317.31
2022-10-09T07:33:23.306Z,95314.16
2022-10-09T07:35:56.620Z,95305.66
2022-10-09T07:38:24.509Z,95309.50
2022-10-09T07:40:54.806Z,95311.53
2022-10-09T07:43:21.848Z,95308.75
2022-10-09T07:45:48.531Z,95303.34
2022-10-09T07:48:15.280Z,95305.88
2022-10-09T07:50:41.938Z,95309.50
2022-10-09T07:53:08.851Z,95312.50
2022-10-09T07:55:36.315Z,95307.88
2022-10-09T07:58:03.045Z,95315.66
2022-10-09T08:00:33.265Z,95321.78
2022-10-09T08:02:59.967Z,95311.00
2022-10-09T08:05:26.498Z,95311.78
2022-10-09T08:07:52.993Z,95301.34
2022-10-09T08:10:19.777Z,95305.19
2022-10-09T08:12:46.869Z,95296.38
2022-10-09T08:15:13.694Z,95302.84
2022-10-09T08:17:40.272Z,95300.22
2022-10-09T08:20:07.352Z,95300.94
2022-10-09T08:22:34.014Z,95294.03
2022-10-09T08:25:00.666Z,95292.34
2022-10-09T08:27:27.185Z,95292.34
2022-10-09T08:29:53.674Z,95295.25
2022-10-09T08:32:20.215Z,95294.81
2022-10-09T08:34:47.499Z,95296.28
2022-10-09T08:37:14.185Z,95293.94
2022-10-09T08:39:40.702Z,95288.69
2022-10-09T08:42:07.245Z,95293.69
2022-10-09T08:44:39.973Z,95290.47
2022-10-09T08:47:21.396Z,95285.88
2022-10-09T08:49:59.082Z,95289.78
2022-10-09T08:52:35.619Z,95286.72
2022-10-09T08:55:24.231Z,95284.06
2022-10-09T08:57:54.975Z,95284.28
2022-10-09T09:00:28.309Z,95281.75
2022-10-09T09:03:06.441Z,95276.97
2022-10-09T09:05:33.043Z,95283.66
2022-10-09T09:08:29.652Z,95270.81
2022-10-09T09:11:21.578Z,95279.69
2022-10-09T09:13:57.470Z,95274.56
2022-10-09T09:16:51.560Z,95265.09
2022-10-09T09:19:53.560Z,95264.19
2022-10-09T09:22:21.417Z,95274.19
2022-10-09T09:24:52.026Z,95264.13
2022-10-09T09:27:22.565Z,95264.47
2022-10-09T09:30:20.644Z,95260.00
2022-10-09T09:32:59.305Z,95259.50
2022-10-09T09:35:30.069Z,95250.44
2022-10-09T09:37:56.685Z,95247.09
2022-10-09T09:40:38.263Z,95245.69
2022-10-09T09:43:17.688Z,95245.94
2022-10-09T09:45:45.601Z,95240.47
2022-10-09T09:48:25.702Z,95232.63
2022-10-09T09:51:16.193Z,95237.41
2022-10-09T09:53:49.157Z,95230.94
2022-10-09T09:56:17.192Z,95231.44
2022-10-09T09:58:49.434Z,95223.78
2022-10-09T10:01:31.163Z,95226.91
2022-10-09T10:04:00.166Z,95233.13
2022-10-09T10:06:43.621Z,95235.78
2022-10-09T10:09:14.826Z,95231.03
2022-10-09T10:12:03.615Z,95230.53
2022-10-09T10:14:31.349Z,95237.25
2022-10-09T10:16:59.941Z,95225.06
2022-10-09T10:19:34.897Z,95223.41
2022-10-09T10:22:04.321Z,95219.56
2022-10-09T10:24:33.896Z,95222.69
2022-10-09T10:27:05.897Z,95210.25
2022-10-09T10:29:38.052Z,95215.97
2022-10-09T10:32:32.757Z,95214.06
2022-10-09T10:35:05.594Z,95210.25
2022-10-09T10:37:53.536Z,95213.59
2022-10-09T10:40:36.520Z,95212.38
2022-10-09T10:43:40.626Z,95210.97
2022-10-09T10:46:22.099Z,95205.19
2022-10-09T10:48:50.024Z,95206.66
2022-10-09T10:51:49.538Z,95201.38
2022-10-09T10:54:36.315Z,95194.66
2022-10-09T10:57:11.937Z,95200.16
2022-10-09T10:59:57.047Z,95198.25
2022-10-09T11:02:42.395Z,95187.72
2022-10-09T11:05:18.675Z,95187.22
2022-10-09T11:07:50.428Z,95182.22
2022-10-09T11:10:27.145Z,95182.91
2022-10-09T11:13:00.109Z,95181.47
2022-10-09T11:15:37.336Z,95177.88
2022-10-09T11:18:33.270Z,95175.69
2022-10-09T11:21:18.385Z,95174.66
2022-10-09T11:24:00.234Z,95177.09
2022-10-09T11:26:53.605Z,95175.63
2022-10-09T11:29:33.097Z,95163.91
2022-10-09T11:32:11.021Z,95174.66
2022-10-09T11:34:43.589Z,95167.97
2022-10-09T11:37:17.937Z,95168.66
2022-10-09T11:39:45.758Z,95164.84
2022-10-09T11:42:20.447Z,95165.06
2022-10-09T11:45:14.260Z,95165.47
2022-10-09T11:47:55.498Z,95150.09
2022-10-09T11:50:42.365Z,95153.44
2022-10-09T11:53:10.641Z,95148.63
2022-10-09T11:55:37.780Z,95138.59
2022-10-09T11:58:15.375Z,95136.84
2022-10-09T12:00:42.882Z,95140.94
2022-10-09T12:03:26.549Z,95145.00
2022-10-09T12:06:04.141Z,95137.34
2022-10-09T12:08:30.775Z,95138.50
2022-10-09T12:11:00.465Z,95134.91
2022-10-09T12:13:39.346Z,95130.16
2022-10-09T12:16:07.653Z,95129.09
2022-10-09T12:18:44.840Z,95130.06
2022-10-09T12:21:28.538Z,95127.16
2022-10-09T12:23:55.388Z,95119.22
2022-10-09T12:26:24.922Z,95120.91
2022-10-09T12:28:55.018Z,95116.09
2022-10-09T12:31:25.828Z,95113.00
2022-10-09T12:33:57.077Z,95118.69
2022-10-09T12:36:26.902Z,95119.72
2022-10-09T12:38:53.665Z,95118.56
2022-10-09T12:41:29.481Z,95106.72
2022-10-09T12:43:57.659Z,95108.69
2022-10-09T12:46:33.452Z,95105.81
2022-10-09T12:49:03.158Z,95110.44
2022-10-09T12:51:31.783Z,95106.25
2022-10-09T12:53:58.383Z,95104.38
2022-10-09T12:56:31.389Z,95106.22
2022-10-09T12:58:59.214Z,95100.50
2022-10-09T13:01:26.440Z,95093.53
2022-10-09T13:04:03.397Z,95098.53
2022-10-09T13:06:53.147Z,95094.41
2022-10-09T13:09:25.627Z,95096.03
2022-10-09T13:12:16.957Z,95092.44
2022-10-09T13:14:57.961Z,95086.25
2022-10-09T13:17:33.188Z,95079.66
2022-10-09T13:20:15.512Z,95075.22
2022-10-09T13:22:56.796Z,95072.41
2022-10-09T13:25:25.393Z,95075.72
2022-10-09T13:27:52.481Z,95078.53
2022-10-09T13:30:19.743Z,95076.25
2022-10-09T13:32:46.342Z,95070.75
2022-10-09T13:35:12.911Z,95075.50
2022-10-09T13:37:39.931Z,95070.13
2022-10-09T13:40:07.181Z,95065.09
2022-10-09T13:42:37.253Z,95065.28
2022-10-09T13:45:05.155Z,95059.13
2022-10-09T13:47:31.919Z,95060.50
2022-10-09T13:49:58.625Z,95054.44
2022-10-09T13:52:25.292Z,95052.59
2022-10-09T13:54:52.045Z,95053.72
2022-10-09T13:57:18.803Z,95045.16
2022-10-09T13:59:45.580Z,95042.50
2022-10-09T14:02:12.578Z,95045.34
2022-10-09T14:04:39.291Z,95037.66
2022-10-09T14:07:05.943Z,95038.69
2022-10-09T14:09:32.449Z,95041.25
2022-10-09T14:11:58.984Z,95045.81
2022-10-09T14:14:25.578Z,95040.69
2022-10-09T14:16:52.097Z,95038.78
2022-10-09T14:19:18.739Z,95038.81
2022-10-09T14:21:46.895Z,95042.78
2022-10-09T14:24:14.457Z,95045.34
2022-10-09T14:26:41.315Z,95041.28
2022-10-09T14:29:09.139Z,95037.28
2022-10-09T14:31:35.666Z,95047.44
2022-10-09T14:34:02.211Z,95040.38
2022-10-09T14:36:29.365Z,95033.00
2022-10-09T14:38:56.050Z,95031.84
2022-10-09T14:41:22.930Z,95025.75
2022-10-09T14:43:56.676Z,95029.72
2022-10-09T14:46:23.493Z,95023.66
2022-10-09T14:48:50.104Z,95024.47
2022-10-09T14:51:19.479Z,95027.59
2022-10-09T14:53:46.856Z,95018.19
2022-10-09T14:56:19.335Z,95013.09
2022-10-09T14:58:46.126Z,95012.22
2022-10-09T15:01:15.038Z,95010.59
2022-10-09T15:03:44.927Z,95008.09
2022-10-09T15:06:12.516Z,95006.59
2022-10-09T15:08:41.471Z,94999.94
2022-10-09T15:11:09.555Z,94998.38
2022-10-09T15:13:36.863Z,94994.00
2022-10-09T15:16:10.930Z,94999.22
2022-10-09T15:18:37.738Z,94996.09
2022-10-09T15:21:04.698Z,94985.50
2022-10-09T15:23:31.599Z,94980.97
2022-10-09T15:26:00.696Z,94978.81
2022-10-09T15:28:27.593Z,94969.47
2022-10-09T15:30:57.755Z,94964.03
2022-10-09T15:33:24.989Z,94963.38
2022-10-09T15:35:52.870Z,94967.16
2022-10-09T15:38:22.395Z,94967.09
2022-10-09T15:40:53.834Z,94960.50
2022-10-09T15:43:23.166Z,94954.25
2022-10-09T15:45:49.953Z,94956.69
2022-10-09T15:48:17.966Z,94954.25
2022-10-09T15:50:46.561Z,94961.44
2022-10-09T15:53:14.991Z,94957.94
2022-10-09T15:55:44.068Z,94959.94
2022-10-09T15:58:10.977Z,94959.16
2022-10-09T16:00:39.626Z,94960.44
2022-10-09T16:03:07.611Z,94956.81
2022-10-09T16:05:47.009Z,94955.81
2022-10-09T16:08:13.626Z,94950.53
2022-10-09T16:10:49.004Z,94950.16
2022-10-09T16:13:16.796Z,94950.78
2022-10-09T16:15:45.018Z,94941.97
2022-10-09T16:18:11.931Z,94944.78
2022-10-09T16:20:39.765Z,94939.09
2022-10-09T16:23:08.055Z,94937.66
2022-10-09T16:25:35.384Z,94947.53
2022-10-09T16:28:02.036Z,94941.53
2022-10-09T16:30:28.858Z,94948.22
2022-10-09T16:32:55.520Z,94936.25
2022-10-09T16:35:22.863Z,94936.75
2022-10-09T16:37:52.131Z,94946.09
2022-10-09T16:40:18.856Z,94942.03
2022-10-09T16:42:45.549Z,94947.31
2022-10-09T16:45:12.145Z,94945.16
2022-10-09T16:47:40.518Z,94944.44
2022-10-09T16:50:07.757Z,94933.19
2022-10-09T16:52:34.280Z,94942.28
2022-10-09T16:55:00.978Z,94937.72
2022-10-09T16:57:27.535Z,94932.97
2022-10-09T16:59:54.038Z,94933.66
2022-10-09T17:02:20.581Z,94932.53
2022-10-09T17:04:47.242Z,94932.53
2022-10-09T17:07:13.920Z,94951.50
2022-10-09T17:09:40.624Z,94941.13
2022-10-09T17:12:09.738Z,94941.03
2022-10-09T17:14:37.842Z,94936.69
2022-10-09T17:17:06.432Z,94935.75
2022-10-09T17:19:33.338Z,94923.28
2022-10-09T17:22:00.832Z,94925.91
2022-10-09T17:24:28.296Z,94917.41
2022-10-09T17:26:58.442Z,94921.22
2022-10-09T17:29:25.252Z,94914.63
2022-10-09T17:31:51.817Z,94920.34
2022-10-09T17:34:18.599Z,94927.28
2022-10-09T17:36:45.692Z,94921.78
2022-10-09T17:39:15.382Z,94923.47
2022-10-09T17:41:45.536Z,94927.75
2022-10-09T17:44:12.803Z,94930.94
2022-10-09T17:46:39.417Z,94933.31
2022-10-09T17:49:06.039Z,94939.09
2022-10-09T17:51:35.881Z,94933.09
2022-10-09T17:54:07.026Z,94929.25
2022-10-09T17:56:36.346Z,94933.09
2022-10-09T17:59:03.938Z,94936.69
2022-10-09T18:01:31.152Z,94934.81
2022-10-09T18:03:58.441Z,94933.59
2022-10-09T18:06:25.637Z,94932.38
2022-10-09T18:08:57.279Z,94925.19
2022-10-09T18:11:25.253Z,94923.03
2022-10-09T18:13:52.361Z,94925.66
2022-10-09T18:16:32.691Z,94927.84
2022-10-09T18:19:15.067Z,94931.66
2022-10-09T18:21:45.438Z,94929.53
2022-10-09T18:24:13.174Z,94936.69
2022-10-09T18:26:39.952Z,94925.44
2022-10-09T18:29:06.944Z,94920.88
2022-10-09T18:31:34.123Z,94923.50
2022-10-09T18:34:00.919Z,94916.09
2022-10-09T18:36:34.466Z,94919.44
2022-10-09T18:39:07.119Z,94913.97
2022-10-09T18:41:33.856Z,94911.09
2022-10-09T18:44:01.434Z,94909.47
2022-10-09T18:46:41.577Z,94908.94
2022-10-09T18:49:10.633Z,94904.19
2022-10-09T18:51:39.292Z,94900.31
2022-10-09T18:54:06.767Z,94904.91
2022-10-09T18:56:34.961Z,94901.31
2022-10-09T18:59:05.434Z,94902.53
2022-10-09T19:01:32.158Z,94904.72
2022-10-09T19:03:58.694Z,94897.53
2022-10-09T19:06:25.267Z,94891.06
2022-10-09T19:08:53.427Z,94890.34
2022-10-09T19:11:20.023Z,94885.06
2022-10-09T19:13:46.645Z,94889.63
2022-10-09T19:16:13.390Z,94890.34
2022-10-09T19:18:39.991Z,94891.53
2022-10-09T19:21:06.965Z,94892.75
2022-10-09T19:23:33.597Z,94895.38
2022-10-09T19:26:00.639Z,94885.53
2022-10-09T19:28:32.861Z,94890.13
2022-10-09T19:31:02.602Z,94887.47
2022-10-09T19:33:29.403Z,94892.50
2022-10-09T19:35:56.493Z,94885.31
2022-10-09T19:38:24.077Z,94881.97
2022-10-09T19:40:50.808Z,94879.59
2022-10-09T19:43:18.432Z,94875.78
2022-10-09T19:45:48.703Z,94876.97
2022-10-09T19:48:17.122Z,94879.59
2022-10-09T19:50:45.705Z,94876.25
2022-10-09T19:53:13.522Z,94880.34
2022-10-09T19:55:40.082Z,94873.19
2022-10-09T19:58:06.831Z,94872.00
2022-10-09T20:00:33.376Z,94872.00
2022-10-09T20:02:59.931Z,94868.69
2022-10-09T20:05:26.699Z,94880.59
2022-10-09T20:07:53.248Z,94875.09
2022-10-09T20:10:19.878Z,94880.66
2022-10-09T20:12:46.464Z,94879.91
2022-10-09T20:15:13.105Z,94876.81
2022-10-09T20:17:39.639Z,94879.66
2022-10-09T20:20:06.660Z,94878.97
2022-10-09T20:22:33.175Z,94884.72
2022-10-09T20:24:59.701Z,94882.06
2022-10-09T20:27:26.211Z,94879.25
2022-10-09T20:29:53.707Z,94878.03
2022-10-09T20:32:20.684Z,94872.81
2022-10-09T20:34:47.269Z,94882.84
2022-10-09T20:37:13.844Z,94885.00
2022-10-09T20:39:40.398Z,94876.38
2022-10-09T20:42:06.975Z,94877.59
2022-10-09T20:44:33.541Z,94874.94
2022-10-09T20:47:00.051Z,94874.94
2022-10-09T20:49:26.780Z,94882.13
2022-10-09T20:51:53.595Z,94872.31
2022-10-09T20:54:21.786Z,94868.94
2022-10-09T20:56:49.004Z,94870.84
2022-10-09T20:59:16.792Z,94866.81
2022-10-09T21:01:43.690Z,94875.41
2022-10-09T21:04:11.647Z,94869.44
2022-10-09T21:06:38.842Z,94869.44
2022-10-09T21:09:05.511Z,94855.53
2022-10-09T21:11:34.540Z,94864.16
2022-10-09T21:14:02.152Z,94860.09
2022-10-09T21:16:28.717Z,94867.50
2022-10-09T21:19:01.030Z,94859.59
2022-10-09T21:21:28.542Z,94858.19
2022-10-09T21:23:56.506Z,94858.69
2022-10-09T21:26:24.158Z,94854.31
2022-10-09T21:28:55.438Z,94857.47
2022-10-09T21:31:28.389Z,94855.34
2022-10-09T21:33:55.315Z,94865.16
2022-10-09T21:36:21.841Z,94858.44
2022-10-09T21:38:48.322Z,94854.59
2022-10-09T21:41:14.855Z,94858.19
2022-10-09T21:43:41.329Z,94856.06
2022-10-09T21:46:07.878Z,94860.63
2022-10-09T21:48:34.388Z,94847.19
2022-10-09T21:51:00.984Z,94851.72
2022-10-09T21:53:27.496Z,94855.59
2022-10-09T21:55:54.000Z,94853.44
2022-10-09T21:58:20.609Z,94850.31
2022-10-09T22:00:55.463Z,94857.53
2022-10-09T22:03:24.297Z,94857.31
2022-10-09T22:05:50.843Z,94862.81
2022-10-09T22:08:17.387Z,94857.06
2022-10-09T22:10:43.929Z,94859.00
2022-10-09T22:13:10.439Z,94861.63
2022-10-09T22:15:48.846Z,94864.28
2022-10-09T22:18:17.565Z,94862.13
2022-10-09T22:20:46.320Z,94858.28
2022-10-09T22:23:13.961Z,94855.66
2022-10-09T22:25:40.492Z,94861.44
2022-10-09T22:28:07.426Z,94861.44
2022-10-09T22:30:34.569Z,94853.75
2022-10-09T22:33:01.113Z,94855.94
2022-10-09T22:35:27.872Z,94857.34
2022-10-09T22:37:54.437Z,94851.13
2022-10-09T22:40:21.513Z,94854.47
2022-10-09T22:42:48.349Z,94859.75
2022-10-09T22:45:15.285Z,94857.63
2022-10-09T22:47:41.788Z,94839.72
2022-10-09T22:50:08.678Z,94843.53
2022-10-09T22:52:35.307Z,94854.06
2022-10-09T22:55:01.986Z,94850.69
2022-10-09T22:57:28.532Z,94848.06
2022-10-09T22:59:55.066Z,94856.47
2022-10-09T23:02:21.603Z,94851.19
2022-10-09T23:04:48.077Z,94857.66
2022-10-09T23:07:15.142Z,94855.03
2022-10-09T23:09:41.620Z,94851.66
2022-10-09T23:12:08.138Z,94849.53
2022-10-09T23:14:34.885Z,94850.97
2022-10-09T23:17:01.439Z,94856.22
2022-10-09T23:19:27.972Z,94854.81
2022-10-09T23:21:54.522Z,94851.22
2022-10-09T23:24:21.011Z,94860.81
2022-10-09T23:26:50.989Z,94858.66
2022-10-09T23:29:20.978Z,94862.00
2022-10-09T23:31:48.603Z,94859.84
2022-10-09T23:34:15.326Z,94865.13
2022-10-09T23:36:42.155Z,94863.94
2022-10-09T23:39:08.898Z,94866.34
2022-10-09T23:41:35.623Z,94872.31
2022-10-09T23:44:02.399Z,94861.06
2022-10-09T23:46:32.913Z,94863.47
2022-10-09T23:49:00.110Z,94857.03
2022-10-09T23:51:27.917Z,94855.34
2022-10-09T23:53:54.559Z,94860.16
2022-10-09T23:56:27.527Z,94861.53
2022-10-09T23:58:55.164Z,94862.06
